Time;durP1;ratioP1;P1;durP2;ratioP2;P2;SDS_P1;SDS_P2;PMS_P1;PMS_P2;Temp;Humidity;BMP_temperature;BMP_pressure;BME280_temperature;BME280_humidity;BME280_pressure;Samples;Min_cycle;Max_cycle;Signal;HPM_P1;HPM_P2
2022/04/06 00:02:12;;;;;;;9.55;5.95;;;;;;;9.42;56.80;99243.53;4485087;32;34271;-76
2022/04/06 00:04:43;;;;;;;10.98;6.20;;;;;;;9.32;57.21;99252.16;4489760;31;34075;-76
2022/04/06 00:07:11;;;;;;;11.12;6.82;;;;;;;9.31;57.20;99253.22;4484320;31;33970;-76
2022/04/06 00:09:39;;;;;;;11.68;7.12;;;;;;;9.27;57.24;99254.69;4485395;31;33562;-76
2022/04/06 00:12:08;;;;;;;12.63;7.57;;;;;;;9.25;57.27;99257.66;4492608;31;33608;-76
2022/04/06 00:14:36;;;;;;;12.25;7.45;;;;;;;9.24;57.29;99253.22;4473952;31;33878;-77
2022/04/06 00:17:07;;;;;;;11.40;7.07;;;;;;;9.28;57.11;99256.38;4485662;31;34063;-77
2022/04/06 00:19:44;;;;;;;11.82;7.82;;;;;;;9.28;57.01;99261.84;4482125;31;34416;-77
2022/04/06 00:22:12;;;;;;;;;;;;;;;9.25;57.16;99259.53;4473553;31;33982;-77
2022/04/06 00:24:42;;;;;;;13.45;8.75;;;;;;;9.24;57.05;99266.06;4484506;31;34306;-76
2022/04/06 00:27:11;;;;;;;14.60;9.65;;;;;;;9.18;57.19;99275.13;4472118;31;34254;-77
2022/04/06 00:29:41;;;;;;;14.77;9.35;;;;;;;9.23;57.14;99270.72;4483230;31;33407;-76
2022/04/06 00:32:11;;;;;;;14.38;9.60;;;;;;;9.16;57.32;99266.28;4483758;31;34635;-76
2022/04/06 00:37:28;;;;;;;14.02;8.85;;;;;;;9.16;57.25;99274.50;4481048;31;33313;-76
2022/04/06 00:39:56;;;;;;;15.50;10.23;;;;;;;9.14;57.31;99265.66;4501479;31;33481;-77
2022/04/06 00:42:23;;;;;;;15.23;9.15;;;;;;;8.95;57.79;99277.44;4487621;31;34501;-76
2022/04/06 00:44:51;;;;;;;14.98;9.88;;;;;;;9.02;57.53;99281.03;4487015;31;32444;-76
2022/04/06 00:47:22;;;;;;;14.30;7.07;;;;;;;8.94;57.63;99279.34;4487718;31;34028;-77
2022/04/06 00:49:49;;;;;;;10.85;6.28;;;;;;;9.01;57.60;99274.72;4461354;31;32316;-77
2022/04/06 00:52:17;;;;;;;8.63;4.45;;;;;;;8.88;57.73;99270.06;4501480;31;34346;-77
2022/04/06 00:54:46;;;;;;;7.10;3.85;;;;;;;8.99;57.58;99274.09;4474507;31;33997;-77
2022/04/06 00:57:14;;;;;;;6.05;3.00;;;;;;;8.93;57.71;99274.06;4474323;31;32503;-77
2022/04/06 00:59:58;;;;;;;5.47;3.17;;;;;;;8.81;58.50;99268.38;4487089;31;32299;-77
2022/04/06 01:02:26;;;;;;;6.57;3.25;;;;;;;8.86;58.56;99277.66;4487419;31;35218;-77
2022/04/06 01:04:56;;;;;;;6.93;3.40;;;;;;;8.97;58.17;99272.62;4487596;31;34072;-76
2022/04/06 01:07:24;;;;;;;5.30;3.15;;;;;;;8.88;58.42;99275.53;4487378;31;33312;-76
2022/04/06 01:09:51;;;;;;;6.72;3.75;;;;;;;8.91;58.31;99274.28;4487348;31;33665;-76
2022/04/06 01:12:23;;;;;;;5.80;2.65;;;;;;;8.84;58.45;99270.69;4474572;31;35261;-76
2022/04/06 01:14:50;;;;;;;6.43;3.30;;;;;;;8.94;58.20;99276.59;4487441;31;34082;-76
2022/04/06 01:17:21;;;;;;;6.10;2.83;;;;;;;8.95;58.41;99291.13;4485683;31;34173;-76
2022/04/06 01:19:53;;;;;;;6.55;3.30;;;;;;;8.78;58.97;99275.09;4501395;31;33661;-77
2022/04/06 01:22:21;;;;;;;10.05;5.53;;;;;;;8.78;59.27;99285.19;4501534;31;34367;-76
2022/04/06 01:24:51;;;;;;;12.20;6.87;;;;;;;8.64;59.61;99287.06;4487041;31;32488;-76
2022/04/06 01:27:19;;;;;;;13.07;7.37;;;;;;;8.62;59.96;99280.94;4501528;31;34221;-77
2022/04/06 01:29:48;;;;;;;11.23;6.20;;;;;;;8.72;59.94;99286.88;4474150;31;33837;-77
2022/04/06 01:32:23;;;;;;;10.02;5.75;;;;;;;8.96;59.48;99281.88;4483797;32;34295;-77
2022/04/06 01:34:53;;;;;;;10.60;5.97;;;;;;;9.02;59.52;99287.34;4470686;32;33912;-77
2022/04/06 01:37:24;;;;;;;9.23;5.12;;;;;;;8.86;59.73;99283.13;4484163;32;34342;-76
2022/04/06 01:39:56;;;;;;;6.78;4.07;;;;;;;9.06;59.34;99288.62;4485197;32;33095;-77
2022/04/06 01:42:26;;;;;;;7.28;4.40;;;;;;;9.04;59.42;99287.16;4484170;32;34307;-76
2022/04/06 01:44:53;;;;;;;8.93;4.75;;;;;;;9.12;59.16;99276.81;4483975;32;33866;-77
2022/04/06 01:47:21;;;;;;;8.57;4.22;;;;;;;9.15;59.23;99275.53;4483913;32;31842;-76
2022/04/06 01:52:38;;;;;;;8.15;5.12;;;;;;;9.10;59.55;99265.22;4484398;32;34199;-76
2022/04/06 01:55:09;;;;;;;11.90;5.85;;;;;;;9.03;59.90;99269.03;4485131;32;34419;-77
2022/04/06 01:57:42;;;;;;;9.55;6.10;;;;;;;9.04;60.01;99276.19;4470926;32;31848;-76
2022/04/06 02:00:13;;;;;;;9.25;5.72;;;;;;;9.08;59.76;99274.72;4483831;32;34390;-76
2022/04/06 02:02:41;;;;;;;9.18;5.72;;;;;;;9.18;59.44;99273.22;4483592;32;34679;-77
2022/04/06 02:05:09;;;;;;;7.57;4.62;;;;;;;9.20;59.35;99276.59;4483955;32;33881;-76
2022/04/06 02:07:37;;;;;;;15.18;9.52;;;;;;;9.22;59.18;99270.91;4483564;32;33175;-77
2022/04/06 02:10:08;;;;;;;19.75;15.25;;;;;;;9.11;59.50;99258.69;4484982;32;33602;-77
2022/04/06 02:12:39;;;;;;;19.65;14.10;;;;;;;9.12;59.54;99263.13;4483508;32;34646;-77
2022/04/06 02:15:12;;;;;;;22.92;17.87;;;;;;;9.14;59.64;99262.91;4472997;31;33912;-76
2022/04/06 02:17:40;;;;;;;22.17;16.62;;;;;;;9.16;59.83;99266.28;4473198;31;31840;-77
2022/04/06 02:20:09;;;;;;;23.17;16.25;;;;;;;9.07;60.16;99259.34;4486441;31;33960;-77
2022/04/06 02:22:36;;;;;;;19.48;15.68;;;;;;;9.19;59.83;99258.50;4486265;31;34408;-77
2022/04/06 02:25:04;;;;;;;21.00;14.77;;;;;;;9.20;59.98;99262.91;4485889;31;34228;-77
2022/04/06 02:27:32;;;;;;;18.00;11.65;;;;;;;9.21;59.84;99264.59;4460253;31;32081;-76
2022/04/06 02:30:00;;;;;;;14.00;8.43;;;;;;;9.18;59.86;99269.66;4486250;31;34472;-76
2022/04/06 02:32:30;;;;;;;11.38;7.93;;;;;;;9.21;59.70;99263.75;4473965;31;34777;-77
2022/04/06 02:34:58;;;;;;;12.32;6.82;;;;;;;9.32;59.25;99265.88;4473431;31;34015;-76
2022/04/06 02:37:28;;;;;;;11.05;6.57;;;;;;;9.23;59.42;99275.34;4485937;31;33283;-77
2022/04/06 02:39:58;;;;;;;11.45;6.05;;;;;;;9.18;59.43;99280.59;4486066;31;33540;-77
2022/04/06 02:42:26;;;;;;;10.80;5.97;;;;;;;9.15;59.38;99267.34;4473397;31;35131;-77
2022/04/06 02:44:56;;;;;;;8.65;5.45;;;;;;;9.14;59.32;99273.88;4486046;31;34767;-77
2022/04/06 02:47:23;;;;;;;10.10;6.28;;;;;;;9.15;59.06;99272.81;4486983;31;32681;-77
2022/04/06 02:49:51;;;;;;;11.73;7.78;;;;;;;9.05;59.26;99267.78;4488227;31;33765;-76
2022/04/06 02:52:18;;;;;;;12.23;7.93;;;;;;;8.98;59.43;99255.97;4474865;31;34311;-77
2022/04/06 02:54:49;;;;;;;10.27;6.53;;;;;;;8.95;59.56;99261.03;4488203;31;33904;-76
2022/04/06 02:57:16;;;;;;;9.20;6.20;;;;;;;8.86;59.71;99265.84;4488745;31;33276;-76
2022/04/06 02:59:49;;;;;;;9.52;5.85;;;;;;;8.88;59.70;99269.22;4502189;31;34448;-82
2022/04/06 03:02:20;;;;;;;8.80;5.50;;;;;;;8.83;59.65;99271.75;4475460;31;33073;-76
2022/04/06 03:04:48;;;;;;;11.70;6.75;;;;;;;8.86;59.47;99271.34;4487970;31;34666;-76
2022/04/06 03:07:19;;;;;;;11.23;5.18;;;;;;;8.80;59.70;99277.63;4488015;31;32520;-72
2022/04/06 03:09:47;;;;;;;8.73;5.40;;;;;;;8.81;62.71;99288.38;4488585;31;33746;-77
2022/04/06 03:12:14;;;;;;;9.18;5.60;;;;;;;9.02;62.91;99283.78;4488227;31;34292;-76
2022/04/06 03:14:42;;;;;;;9.05;5.20;;;;;;;8.96;61.31;99281.88;4502167;31;34151;-76
2022/04/06 03:17:10;;;;;;;9.68;5.22;;;;;;;8.98;60.52;99287.97;4488013;31;33934;-76
2022/04/06 03:19:37;;;;;;;9.90;5.57;;;;;;;8.77;60.54;99289.84;4487652;31;33789;-76
2022/04/06 03:22:05;;;;;;;9.43;5.72;;;;;;;8.93;60.07;99287.75;4474758;31;33961;-75
2022/04/06 03:24:32;;;;;;;8.93;4.95;;;;;;;9.19;70.63;99283.13;4474554;31;33750;-76
2022/04/06 03:27:00;;;;;;;12.60;5.70;;;;;;;9.50;64.71;99282.50;4502273;31;33238;-76
2022/04/06 03:29:27;;;;;;;12.30;5.20;;;;;;;9.31;62.22;99279.75;4488364;31;33280;-76
2022/04/06 03:31:55;;;;;;;9.30;5.18;;;;;;;9.31;61.05;99277.87;4502251;31;35091;-76
2022/04/06 03:34:23;;;;;;;9.93;6.75;;;;;;;9.22;60.30;99282.72;4487987;31;34547;-76
2022/04/06 03:36:50;;;;;;;8.15;5.68;;;;;;;9.15;60.09;99278.28;4502232;31;33274;-76
2022/04/06 03:39:18;;;;;;;9.68;5.07;;;;;;;9.04;60.32;99285.25;4502055;31;34652;-76
2022/04/06 03:41:45;;;;;;;8.57;4.85;;;;;;;9.11;61.18;99277.84;4487885;31;34303;-74
2022/04/06 03:44:13;;;;;;;11.73;4.80;;;;;;;9.14;60.87;99276.59;4488115;31;33873;-74
2022/04/06 03:46:40;;;;;;;10.60;5.47;;;;;;;9.13;60.35;99277.66;4474989;31;32661;-74
2022/04/06 03:49:08;;;;;;;11.70;5.05;;;;;;;9.16;60.01;99269.87;4474838;31;33351;-73
2022/04/06 03:51:36;;;;;;;8.55;4.60;;;;;;;9.16;59.68;99282.72;4487812;31;35197;-73
2022/04/06 03:54:04;;;;;;;8.93;5.07;;;;;;;8.98;59.96;99285.25;4475147;31;34337;-74
2022/04/06 03:56:32;;;;;;;11.70;5.32;;;;;;;8.89;60.10;99293.66;4487810;31;32844;-73
2022/04/06 03:59:00;;;;;;;10.00;5.05;;;;;;;8.92;60.00;99286.91;4474286;31;32152;-74
2022/04/06 04:01:30;;;;;;;8.93;5.28;;;;;;;8.91;60.03;99288.81;4501841;31;34326;-74
2022/04/06 04:03:58;;;;;;;12.80;6.15;;;;;;;9.04;59.79;99292.63;4502177;31;34537;-73
2022/04/06 04:06:25;;;;;;;214.27;62.15;;;;;;;8.96;60.12;99285.44;4475000;31;33654;-74
2022/04/06 04:08:53;;;;;;;235.45;67.43;;;;;;;8.77;60.78;99289.84;4474584;31;33062;-74
2022/04/06 04:11:21;;;;;;;114.97;35.90;;;;;;;8.91;60.50;99285.22;4461730;31;33857;-74
2022/04/06 04:13:48;;;;;;;532.72;151.50;;;;;;;8.90;60.41;99294.50;4474291;31;33529;-73
2022/04/06 04:16:16;;;;;;;404.62;118.68;;;;;;;9.11;59.83;99297.03;4471530;32;33570;-74
2022/04/06 04:18:44;;;;;;;182.90;61.45;;;;;;;9.01;60.11;99293.88;4483196;32;33794;-75
2022/04/06 04:23:59;;;;;;;25.23;11.63;;;;;;;9.03;60.36;99285.47;4486310;32;34687;-75
2022/04/06 04:26:27;;;;;;;19.85;9.65;;;;;;;9.01;60.46;99282.09;4471859;32;33256;-75
2022/04/06 04:28:56;;;;;;;16.65;9.23;;;;;;;9.11;60.39;99290.69;4484663;32;33652;-75
2022/04/06 04:31:24;;;;;;;15.15;8.32;;;;;;;9.04;60.68;99289.88;4471681;32;35240;-75
2022/04/06 04:33:52;;;;;;;12.85;7.10;;;;;;;9.14;60.57;99288.38;4471832;32;34100;-74
2022/04/06 04:36:19;;;;;;;11.52;6.57;;;;;;;9.04;60.87;99285.25;4471685;32;33243;-74
2022/04/06 04:38:47;;;;;;;11.65;7.20;;;;;;;9.07;61.09;99306.72;4471894;32;33979;-74
2022/04/06 04:41:16;;;;;;;13.88;7.80;;;;;;;9.19;60.95;99307.78;4471320;32;35198;-75
2022/04/06 04:43:43;;;;;;;16.62;7.82;;;;;;;9.11;61.14;99302.50;4484650;32;34075;-75
2022/04/06 04:46:11;;;;;;;10.88;6.95;;;;;;;9.15;61.52;99309.25;4471761;32;31734;-75
2022/04/06 04:48:39;;;;;;;14.55;7.28;;;;;;;9.17;61.81;99309.03;4484429;32;34301;-75
2022/04/06 04:51:06;;;;;;;12.55;7.32;;;;;;;9.09;62.36;99304.62;4485343;32;34352;-75
2022/04/06 04:53:34;;;;;;;11.25;6.37;;;;;;;9.30;61.86;99306.31;4471332;32;33426;-75
2022/04/06 04:56:01;;;;;;;13.15;6.60;;;;;;;9.39;61.84;99310.53;4458907;32;33604;-75
2022/04/06 04:58:29;;;;;;;11.25;6.85;;;;;;;9.23;62.55;99305.47;4471118;32;33890;-75
2022/04/06 05:00:57;;;;;;;10.38;5.85;;;;;;;9.40;62.18;99301.25;4471234;32;32848;-75
2022/04/06 05:03:24;;;;;;;13.02;6.55;;;;;;;9.44;62.13;99310.72;4485937;32;34164;-75
2022/04/06 05:05:53;;;;;;;15.65;6.40;;;;;;;9.66;61.50;99307.78;4471894;32;31947;-76
2022/04/06 05:08:25;;;;;;;14.05;7.18;;;;;;;9.84;66.91;99314.25;4472371;32;34584;-76
2022/04/06 05:10:55;;;;;;;16.52;7.87;;;;;;;10.26;68.75;99311.25;4484678;32;35262;-75
2022/04/06 05:13:23;;;;;;;12.32;6.87;;;;;;;10.33;65.47;99317.56;4471495;32;33473;-75
2022/04/06 05:15:51;;;;;;;11.18;6.87;;;;;;;10.41;63.43;99314.53;4484354;32;32938;-75
2022/04/06 05:18:19;;;;;;;13.85;7.68;;;;;;;10.38;62.31;99315.84;4458740;32;33715;-75
2022/04/06 05:20:46;;;;;;;11.27;6.68;;;;;;;10.38;61.48;99312.25;4484565;32;34509;-75
2022/04/06 05:23:15;;;;;;;10.98;6.70;;;;;;;10.41;61.05;99314.53;4471716;32;33896;-75
2022/04/06 05:25:42;;;;;;;17.77;10.75;;;;;;;10.38;60.80;99318.59;4471606;32;34020;-75
2022/04/06 05:28:09;;;;;;;18.20;10.05;;;;;;;10.19;61.23;99317.59;4484519;32;34596;-75
2022/04/06 05:30:41;;;;;;;16.35;8.38;;;;;;;10.32;60.88;99327.69;4484236;32;34242;-75
2022/04/06 05:33:09;;;;;;;38.33;23.02;;;;;;;10.32;60.82;99329.59;4457334;32;33951;-75
2022/04/06 05:35:37;;;;;;;18.42;11.18;;;;;;;10.53;60.31;99323.78;4468825;32;33458;-75
2022/04/06 05:38:05;;;;;;;12.00;8.05;;;;;;;10.50;60.34;99330.53;4443323;32;32336;-75
2022/04/06 05:40:32;;;;;;;11.90;6.93;;;;;;;10.61;60.16;99341.91;4482577;32;34424;-75
2022/04/06 05:42:59;;;;;;;14.23;7.18;;;;;;;10.59;60.33;99336.63;4482716;32;33809;-75
2022/04/06 05:45:28;;;;;;;11.60;7.03;;;;;;;10.59;60.77;99338.53;4457745;32;33548;-75
2022/04/06 05:47:55;;;;;;;15.15;7.40;;;;;;;10.68;61.00;99338.06;4484951;32;34709;-75
2022/04/06 05:50:23;;;;;;;15.02;7.97;;;;;;;10.78;61.10;99341.19;4471156;32;32909;-75
2022/04/06 05:52:51;;;;;;;16.00;7.47;;;;;;;10.88;60.93;99341.56;4471437;32;33854;-75
2022/04/06 05:55:18;;;;;;;19.17;9.68;;;;;;;11.06;60.55;99342.69;4458266;32;33355;-75
2022/04/06 05:57:45;;;;;;;22.77;9.27;;;;;;;11.07;60.85;99349.88;4484047;32;33567;-75
2022/04/06 06:00:14;;;;;;;17.10;8.52;;;;;;;11.25;60.64;99362.88;4484815;32;34364;-75
2022/04/06 06:02:43;;;;;;;16.65;9.05;;;;;;;11.24;60.91;99351.03;4485352;32;34046;-75
2022/04/06 06:05:11;;;;;;;19.42;9.20;;;;;;;11.36;60.41;99353.91;4470935;32;31676;-75
2022/04/06 06:07:38;;;;;;;16.33;8.75;;;;;;;11.40;60.03;99353.25;4457954;32;31956;-75
2022/04/06 06:10:06;;;;;;;17.65;8.98;;;;;;;11.52;59.70;99351.47;4483906;32;34489;-75
2022/04/06 06:12:34;;;;;;;19.95;9.60;;;;;;;11.62;59.53;99353.72;4470902;32;33981;-75
2022/04/06 06:15:04;;;;;;;18.52;8.05;;;;;;;11.69;59.72;99350.91;4447216;31;32905;-75
2022/04/06 06:17:36;;;;;;;21.58;11.63;;;;;;;11.91;59.28;99349.47;4500723;31;34685;-75
2022/04/06 06:20:05;;;;;;;18.20;12.10;;;;;;;11.97;59.43;99348.56;4486330;31;33007;-75
2022/04/06 06:22:33;;;;;;;25.92;12.55;;;;;;;11.97;59.43;99350.47;4488403;31;34741;-75
2022/04/06 06:25:01;;;;;;;24.87;14.50;;;;;;;12.05;59.25;99359.28;4502775;31;33245;-75
2022/04/06 06:27:29;;;;;;;20.48;11.93;;;;;;;12.15;58.95;99354.09;4462537;31;33077;-75
2022/04/06 06:29:57;;;;;;;18.45;11.55;;;;;;;12.26;58.86;99351.66;4475235;31;32694;-75
2022/04/06 06:32:24;;;;;;;19.37;12.00;;;;;;;12.35;58.63;99350.28;4488396;31;34799;-75
2022/04/06 06:34:51;;;;;;;24.35;12.07;;;;;;;12.48;58.79;99353.72;4502674;31;34288;-76
2022/04/06 06:37:22;;;;;;;17.23;9.95;;;;;;;12.74;58.71;99349.78;4476193;31;34611;-75
2022/04/06 06:39:52;;;;;;;19.75;10.75;;;;;;;13.22;57.91;99351.69;4475513;31;35186;-75
2022/04/06 06:42:21;;;;;;;13.57;7.82;;;;;;;13.76;56.50;99342.34;4488836;31;33700;-75
2022/04/06 06:44:48;;;;;;;17.95;9.00;;;;;;;14.26;53.12;99341.03;4488628;31;33325;-75
2022/04/06 06:47:16;;;;;;;14.70;7.97;;;;;;;14.68;51.43;99336.19;4488384;31;33711;-76
2022/04/06 06:49:46;;;;;;;15.25;8.82;;;;;;;15.20;50.50;99336.94;4488685;31;34248;-75
2022/04/06 06:52:14;;;;;;;16.58;9.30;;;;;;;15.63;48.34;99333.56;4475398;31;32569;-76
2022/04/06 06:54:41;;;;;;;20.00;10.68;;;;;;;15.86;47.08;99337.25;4502821;31;33453;-76
2022/04/06 06:57:11;;;;;;;21.42;11.77;;;;;;;16.28;46.27;99334.84;4475353;31;34718;-75
2022/04/06 06:59:39;;;;;;;20.70;12.25;;;;;;;16.65;44.19;99333.19;4487820;31;34588;-75
2022/04/06 07:02:07;;;;;;;21.23;13.25;;;;;;;17.14;44.56;99324.88;4475068;31;32590;-75
2022/04/06 07:04:36;;;;;;;29.92;18.42;;;;;;;17.23;44.01;99320.56;4488028;31;31840;-75
2022/04/06 07:07:03;;;;;;;31.23;20.52;;;;;;;17.36;42.79;99316.53;4475066;31;33325;-75
2022/04/06 07:09:31;;;;;;;35.35;21.33;;;;;;;16.91;42.97;99323.25;4488172;31;34658;-76
2022/04/06 07:11:58;;;;;;;28.38;18.17;;;;;;;17.15;43.50;99322.97;4488367;31;33884;-76
2022/04/06 07:14:26;;;;;;;28.02;16.65;;;;;;;17.39;42.10;99327.94;4475346;31;34224;-76
2022/04/06 07:16:54;;;;;;;27.85;17.27;;;;;;;17.53;42.65;99317.25;4488349;31;33949;-76
2022/04/06 07:19:22;;;;;;;24.35;14.95;;;;;;;17.75;41.20;99322.72;4488101;31;34428;-76
2022/04/06 07:21:50;;;;;;;19.27;10.50;;;;;;;17.95;40.91;99324.84;4488109;31;33961;-75
2022/04/06 07:24:18;;;;;;;20.65;10.38;;;;;;;18.29;37.86;99320.59;4488340;31;33300;-75
2022/04/06 07:26:46;;;;;;;16.10;9.90;;;;;;;18.66;38.24;99325.28;4488088;31;34725;-75
2022/04/06 07:29:15;;;;;;;20.20;9.18;;;;;;;18.83;37.99;99325.09;4475030;31;33866;-76
2022/04/06 07:31:42;;;;;;;12.88;7.70;;;;;;;19.21;36.71;99323.81;4475091;31;32523;-76
2022/04/06 07:34:10;;;;;;;14.60;8.25;;;;;;;19.31;36.63;99321.06;4461846;31;31778;-76
2022/04/06 07:36:38;;;;;;;14.65;7.32;;;;;;;19.34;36.43;99324.13;4488296;31;33784;-77
2022/04/06 07:39:06;;;;;;;11.98;7.53;;;;;;;19.19;36.69;99321.31;4475285;31;34245;-75
2022/04/06 07:41:33;;;;;;;13.45;8.00;;;;;;;19.30;36.39;99330.53;4488162;31;34001;-76
2022/04/06 07:44:02;;;;;;;13.18;7.95;;;;;;;19.50;35.84;99329.72;4474957;31;32741;-76
2022/04/06 07:46:29;;;;;;;13.00;7.12;;;;;;;19.58;37.04;99331.97;4502425;31;33785;-75
2022/04/06 07:48:57;;;;;;;11.12;6.20;;;;;;;19.76;35.09;99331.44;4474875;31;33130;-75
2022/04/06 07:51:24;;;;;;;11.52;6.60;;;;;;;20.17;35.05;99336.97;4487943;31;33912;-76
2022/04/06 07:53:52;;;;;;;13.30;6.15;;;;;;;20.03;34.56;99332.00;4488230;31;33415;-76
2022/04/06 07:56:20;;;;;;;12.23;7.25;;;;;;;19.59;35.58;99330.84;4475253;31;34356;-75
2022/04/06 07:58:47;;;;;;;12.43;7.43;;;;;;;19.11;35.69;99334.91;4501878;31;34450;-76
2022/04/06 08:01:15;;;;;;;12.18;7.62;;;;;;;18.81;37.18;99341.22;4501829;31;33896;-75
2022/04/06 08:03:42;;;;;;;16.52;8.52;;;;;;;18.43;38.45;99343.19;4502025;31;33184;-75
2022/04/06 08:06:10;;;;;;;13.55;8.50;;;;;;;18.52;38.40;99335.19;4501854;31;33975;-76
2022/04/06 08:08:37;;;;;;;12.98;8.05;;;;;;;18.49;39.21;99338.50;4461839;31;33832;-75
2022/04/06 08:11:06;;;;;;;15.52;9.15;;;;;;;18.08;39.53;99332.72;4501821;31;33890;-75
2022/04/06 08:13:34;;;;;;;14.50;9.07;;;;;;;18.01;40.14;99334.88;4487825;31;34164;-75
2022/04/06 08:16:02;;;;;;;14.65;8.70;;;;;;;18.16;39.83;99332.22;4466952;32;32164;-75
2022/04/06 08:18:29;;;;;;;15.13;8.55;;;;;;;18.47;39.01;99327.66;4471994;32;34500;-76
2022/04/06 08:20:59;;;;;;;18.02;8.50;;;;;;;18.39;39.55;99340.13;4486012;32;33997;-75
2022/04/06 08:23:26;;;;;;;13.73;8.38;;;;;;;18.99;38.95;99332.38;4486041;32;33999;-75
2022/04/06 08:25:55;;;;;;;14.02;8.20;;;;;;;19.50;38.05;99336.09;4486066;32;34333;-75
2022/04/06 08:28:22;;;;;;;15.10;9.07;;;;;;;19.89;37.67;99330.87;4471909;32;35175;-76
2022/04/06 08:30:50;;;;;;;13.62;8.60;;;;;;;20.29;35.86;99326.38;4471756;32;32570;-75
2022/04/06 08:33:17;;;;;;;13.07;8.38;;;;;;;20.48;36.07;99318.28;4458886;32;32707;-75
2022/04/06 08:35:54;;;;;;;12.63;7.07;;;;;;;20.63;35.39;99326.59;4461307;32;33435;-75
2022/04/06 08:38:22;;;;;;;12.75;7.50;;;;;;;20.91;34.46;99327.88;4472122;32;35175;-76
2022/04/06 08:44:23;;;;;;;12.27;6.95;;;;;;;21.04;35.91;99325.28;4484773;32;34059;-75
2022/04/06 08:46:52;;;;;;;11.90;7.07;;;;;;;21.22;34.83;99334.16;4471815;32;34452;-75
2022/04/06 08:49:23;;;;;;;12.37;7.20;;;;;;;21.58;33.25;99331.97;4472428;32;34362;-75
2022/04/06 08:51:55;;;;;;;14.25;8.15;;;;;;;21.59;34.29;99328.06;4471996;32;33834;-76
2022/04/06 08:54:22;;;;;;;12.20;7.43;;;;;;;21.53;34.89;99329.22;4486137;32;32919;-76
2022/04/06 08:56:50;;;;;;;12.35;7.00;;;;;;;21.75;34.36;99332.41;4471488;32;32407;-75
2022/04/06 08:59:18;;;;;;;12.73;6.75;;;;;;;22.09;32.85;99326.84;4471624;32;34276;-75
2022/04/06 09:01:45;;;;;;;12.00;7.55;;;;;;;22.03;33.36;99316.84;4458868;32;32506;-76
2022/04/06 09:04:13;;;;;;;17.77;8.13;;;;;;;22.30;34.69;99317.13;4471924;32;34239;-76
2022/04/06 09:07:09;;;;;;;13.30;6.85;;;;;;;22.52;32.79;99311.03;4474076;32;33896;-76
2022/04/06 09:09:37;;;;;;;12.85;6.68;;;;;;;22.81;30.88;99318.53;4458758;32;33078;-76
2022/04/06 09:12:08;;;;;;;15.63;9.43;;;;;;;22.96;31.96;99316.38;4471682;32;34628;-75
2022/04/06 09:14:36;;;;;;;11.07;7.53;;;;;;;23.07;32.61;99296.66;4471879;32;33248;-75
2022/04/06 09:17:05;;;;;;;14.63;7.00;;;;;;;23.22;32.23;99302.03;4471627;32;32195;-76
2022/04/06 09:19:46;;;;;;;10.20;5.90;;;;;;;23.45;30.74;99311.50;4458625;32;33071;-76
2022/04/06 09:22:13;;;;;;;9.32;6.20;;;;;;;23.56;29.79;99301.81;4471662;32;34572;-76
2022/04/06 09:24:41;;;;;;;9.68;5.85;;;;;;;23.44;30.00;99290.22;4458593;32;31937;-76
2022/04/06 09:27:08;;;;;;;12.95;8.00;;;;;;;23.82;30.35;99291.87;4445818;32;32364;-76
2022/04/06 09:29:36;;;;;;;12.73;5.82;;;;;;;23.85;29.18;99296.88;4471741;32;34465;-76
2022/04/06 09:32:07;;;;;;;9.32;6.10;;;;;;;24.04;30.00;99296.84;4458497;32;33191;-76
2022/04/06 09:34:54;;;;;;;8.95;5.78;;;;;;;24.11;30.22;99300.03;4471669;32;32593;-76
2022/04/06 09:37:26;;;;;;;8.50;5.43;;;;;;;24.25;28.47;99291.66;4458679;32;34274;-76
2022/04/06 09:39:56;;;;;;;10.10;6.00;;;;;;;24.22;28.90;99284.69;4471620;32;34528;-76
2022/04/06 09:42:26;;;;;;;9.95;6.10;;;;;;;24.49;29.20;99278.34;4445783;32;32369;-76
2022/04/06 09:47:53;;;;;;;8.20;5.65;;;;;;;24.46;29.39;99267.75;4473576;32;34523;-76
2022/04/06 09:50:23;;;;;;;12.40;6.80;;;;;;;24.73;29.86;99266.88;4471442;32;34357;-76
2022/04/06 09:52:51;;;;;;;12.25;5.93;;;;;;;24.60;27.60;99256.53;4458469;32;34042;-76
2022/04/06 09:55:20;;;;;;;10.35;6.05;;;;;;;24.60;28.50;99259.31;4470607;32;33573;-76
2022/04/06 09:57:55;;;;;;;11.68;8.70;;;;;;;24.87;27.85;99262.09;4458287;32;32187;-76
2022/04/06 10:00:25;;;;;;;9.80;6.68;;;;;;;24.96;27.35;99251.00;4471088;32;35264;-76
2022/04/06 10:03:15;;;;;;;11.85;6.68;;;;;;;24.86;26.77;99262.41;4458130;32;34076;-76
2022/04/06 10:05:42;;;;;;;11.27;6.55;;;;;;;25.07;26.75;99248.78;4458170;32;31727;-76
2022/04/06 10:08:11;;;;;;;10.77;5.90;;;;;;;25.32;27.94;99241.75;4471098;32;34033;-76
2022/04/06 10:10:40;;;;;;;11.57;6.65;;;;;;;25.41;27.08;99240.66;4458172;32;34187;-76
2022/04/06 10:13:08;;;;;;;10.90;6.28;;;;;;;25.40;27.22;99246.59;4470857;32;33865;-76
2022/04/06 10:15:59;;;;;;;8.48;5.35;;;;;;;25.79;26.13;99240.31;4466022;31;31959;-75
2022/04/06 10:18:28;;;;;;;10.40;5.32;;;;;;;26.05;26.48;99223.59;4500714;31;33814;-76
2022/04/06 10:21:02;;;;;;;9.65;5.22;;;;;;;25.89;23.97;99231.63;4460764;31;32991;-76
2022/04/06 10:23:53;;;;;;;9.50;5.32;;;;;;;25.71;25.66;99227.88;4500728;31;33883;-76
2022/04/06 10:26:47;;;;;;;9.07;5.10;;;;;;;25.34;24.73;99228.22;4450127;31;33430;-76
2022/04/06 10:29:15;;;;;;;9.38;5.85;;;;;;;25.30;25.10;99230.00;4500674;31;34477;-76
2022/04/06 10:31:46;;;;;;;12.02;6.18;;;;;;;24.76;26.28;99214.91;4486481;31;34137;-76
2022/04/06 10:34:25;;;;;;;10.10;5.57;;;;;;;24.23;26.64;99216.25;4473732;31;33088;-76
2022/04/06 10:37:15;;;;;;;10.15;5.78;;;;;;;23.97;26.20;99218.75;4486406;31;34219;-76
2022/04/06 10:39:53;;;;;;;11.32;5.20;;;;;;;23.46;27.64;99215.13;4473797;31;33274;-75
2022/04/06 10:42:27;;;;;;;11.40;6.03;;;;;;;23.36;27.48;99216.16;4500804;31;34488;-75
2022/04/06 10:44:55;;;;;;;12.32;5.80;;;;;;;23.61;27.21;99223.31;4500450;31;33841;-75
2022/04/06 10:47:24;;;;;;;10.55;5.82;;;;;;;23.62;27.62;99206.19;4473471;31;33423;-75
2022/04/06 10:50:11;;;;;;;12.15;5.93;;;;;;;23.38;27.69;99207.44;4500390;31;34174;-75
2022/04/06 10:52:39;;;;;;;11.95;6.00;;;;;;;23.57;28.01;99213.84;4500632;31;34050;-75
2022/04/06 10:55:08;;;;;;;13.40;6.78;;;;;;;23.30;28.36;99208.97;4486134;31;33839;-75
2022/04/06 10:57:55;;;;;;;12.77;7.50;;;;;;;23.08;28.63;99208.75;4486111;31;33209;-75
2022/04/06 11:00:25;;;;;;;11.35;7.55;;;;;;;23.15;28.51;99200.78;4472888;31;32314;-75
2022/04/06 11:02:53;;;;;;;11.00;7.15;;;;;;;23.27;28.45;99196.41;4500174;31;35280;-75
2022/04/06 11:05:44;;;;;;;13.30;8.65;;;;;;;23.48;28.86;99196.03;4486118;31;34819;-75
2022/04/06 11:11:37;;;;;;;21.08;15.07;;;;;;;23.65;29.55;99182.34;4477023;31;32328;-75
2022/04/06 11:14:05;;;;;;;20.88;15.45;;;;;;;23.80;28.83;99175.63;4487917;31;34813;-76
2022/04/06 11:16:59;;;;;;;13.48;8.77;;;;;;;24.25;29.78;99168.28;4475131;31;32799;-76
2022/04/06 11:19:29;;;;;;;17.02;10.35;;;;;;;23.89;28.76;99163.41;4473985;31;34378;-76
2022/04/06 11:21:57;;;;;;;13.13;9.18;;;;;;;23.58;29.15;99160.31;4475332;31;34769;-75
2022/04/06 11:24:31;;;;;;;13.90;8.65;;;;;;;23.78;29.73;99156.31;4474972;31;32561;-76
2022/04/06 11:26:59;;;;;;;13.32;9.40;;;;;;;23.92;29.79;99157.16;4488421;31;33832;-76
2022/04/06 11:29:27;;;;;;;14.07;10.45;;;;;;;23.53;29.82;99148.34;4488185;31;33374;-76
2022/04/06 11:32:06;;;;;;;14.20;9.85;;;;;;;23.28;29.22;99150.47;4488358;31;33465;-76
2022/04/06 11:34:35;;;;;;;16.73;9.80;;;;;;;23.13;29.74;99147.91;4462584;31;33945;-76
2022/04/06 11:37:07;;;;;;;13.68;9.85;;;;;;;23.09;29.96;99140.44;4462184;31;33441;-76
2022/04/06 11:39:36;;;;;;;16.52;9.95;;;;;;;23.53;29.57;99139.94;4474920;31;32128;-76
2022/04/06 11:42:06;;;;;;;13.80;10.18;;;;;;;23.93;28.90;99132.78;4488167;31;33695;-76
2022/04/06 11:44:34;;;;;;;17.50;10.68;;;;;;;23.82;28.36;99128.50;4474912;31;34309;-76
2022/04/06 11:47:03;;;;;;;15.32;8.98;;;;;;;23.63;28.76;99126.59;4475517;31;33580;-76
2022/04/06 11:49:32;;;;;;;13.35;9.50;;;;;;;24.03;29.04;99120.53;4487929;31;33081;-76
2022/04/06 11:51:59;;;;;;;16.55;10.73;;;;;;;24.26;27.51;99111.91;4475153;31;33968;-76
2022/04/06 11:54:27;;;;;;;14.20;9.57;;;;;;;24.26;28.10;99108.28;4502066;31;34395;-76
2022/04/06 11:56:55;;;;;;;14.05;9.45;;;;;;;24.73;27.30;99106.09;4475142;31;33804;-76
2022/04/06 11:59:23;;;;;;;13.60;9.23;;;;;;;24.82;27.85;99095.75;4487742;31;33195;-76